createdAt,value
2023-04-28T00:02:09.497Z,6.80
2023-04-28T00:04:36.508Z,5.00
2023-04-28T00:07:04.093Z,6.40
2023-04-28T00:09:31.152Z,7.90
2023-04-28T00:11:58.186Z,5.50
2023-04-28T00:14:25.294Z,7.70
2023-04-28T00:16:53.399Z,9.80
2023-04-28T00:19:21.412Z,8.00
2023-04-28T00:21:48.474Z,7.50
2023-04-28T00:24:15.839Z,7.60
2023-04-28T00:26:43.151Z,6.90
2023-04-28T00:29:10.402Z,6.20
2023-04-28T00:31:37.383Z,5.40
2023-04-28T00:34:04.288Z,8.10
2023-04-28T00:36:33.487Z,4.00
2023-04-28T00:39:00.738Z,9.50
2023-04-28T00:41:28.112Z,5.30
2023-04-28T00:43:55.343Z,5.90
2023-04-28T00:46:28.456Z,5.20
2023-04-28T00:48:56.163Z,9.00
2023-04-28T00:51:23.574Z,7.90
2023-04-28T00:53:51.312Z,5.20
2023-04-28T00:56:18.461Z,5.00
2023-04-28T00:58:45.823Z,7.90
2023-04-28T01:01:12.758Z,7.20
2023-04-28T01:03:41.325Z,7.00
2023-04-28T01:06:09.183Z,5.60
2023-04-28T01:08:37.782Z,6.70
2023-04-28T01:11:07.476Z,6.90
2023-04-28T01:13:53.793Z,9.20
2023-04-28T01:16:21.622Z,7.70
2023-04-28T01:18:48.905Z,4.70
2023-04-28T01:21:15.804Z,5.70
2023-04-28T01:23:46.377Z,6.20
2023-04-28T01:26:13.396Z,9.30
2023-04-28T01:28:40.096Z,5.40
2023-04-28T01:31:07.107Z,10.90
2023-04-28T01:33:34.292Z,6.30
2023-04-28T01:36:01.298Z,7.10
2023-04-28T01:38:28.181Z,4.70
2023-04-28T01:40:55.635Z,9.80
2023-04-28T01:43:22.770Z,7.90
2023-04-28T01:45:49.897Z,7.20
2023-04-28T01:48:17.039Z,5.20
2023-04-28T01:50:46.903Z,6.40
2023-04-28T01:53:14.697Z,8.10
2023-04-28T01:55:41.804Z,6.50
2023-04-28T01:58:08.868Z,4.60
2023-04-28T02:00:36.151Z,5.20
2023-04-28T02:03:03.702Z,6.20
2023-04-28T02:05:30.934Z,5.80
2023-04-28T02:07:57.826Z,8.60
2023-04-28T02:10:25.629Z,8.60
2023-04-28T02:12:52.893Z,4.90
2023-04-28T02:15:20.135Z,9.00
2023-04-28T02:17:47.602Z,10.90
2023-04-28T02:20:14.806Z,7.90
2023-04-28T02:22:41.664Z,7.30
2023-04-28T02:25:09.437Z,6.50
2023-04-28T02:27:38.441Z,5.50
2023-04-28T02:30:06.771Z,4.30
2023-04-28T02:32:33.906Z,3.50
2023-04-28T02:35:00.902Z,7.50
2023-04-28T02:37:27.933Z,6.40
2023-04-28T02:39:55.232Z,5.10
2023-04-28T02:42:23.373Z,8.30
2023-04-28T02:44:50.509Z,6.20
2023-04-28T02:47:17.677Z,5.60
2023-04-28T02:49:47.608Z,7.40
2023-04-28T02:52:16.398Z,5.80
2023-04-28T02:54:43.347Z,4.60
2023-04-28T02:57:10.242Z,7.80
2023-04-28T02:59:37.141Z,4.20
2023-04-28T03:02:03.977Z,8.30
2023-04-28T03:04:31.082Z,4.10
2023-04-28T03:06:58.524Z,7.50
2023-04-28T03:09:25.729Z,5.60
2023-04-28T03:11:52.865Z,9.20
2023-04-28T03:14:20.576Z,11.00
2023-04-28T03:16:47.638Z,7.70
2023-04-28T03:19:15.183Z,9.40
2023-04-28T03:21:42.329Z,4.70
2023-04-28T03:24:09.532Z,6.60
2023-04-28T03:26:37.498Z,3.80
2023-04-28T03:29:04.468Z,5.00
2023-04-28T03:31:31.650Z,9.90
2023-04-28T03:33:59.708Z,4.20
2023-04-28T03:36:27.868Z,5.30
2023-04-28T03:38:55.561Z,7.00
2023-04-28T03:41:22.523Z,7.20
2023-04-28T03:44:10.093Z,5.90
2023-04-28T03:46:46.307Z,5.00
2023-04-28T03:49:13.184Z,3.70
2023-04-28T03:51:40.055Z,5.70
2023-04-28T03:54:07.615Z,4.90
2023-04-28T03:56:35.269Z,6.10
2023-04-28T03:59:02.491Z,6.80
2023-04-28T04:01:29.647Z,5.00
2023-04-28T04:03:57.005Z,6.50
2023-04-28T04:06:24.242Z,5.90
2023-04-28T04:08:51.842Z,6.20
2023-04-28T04:11:19.091Z,8.40
2023-04-28T04:13:46.143Z,3.80
2023-04-28T04:16:17.908Z,5.80
2023-04-28T04:18:45.820Z,7.70
2023-04-28T04:21:25.098Z,5.00
2023-04-28T04:23:52.410Z,5.10
2023-04-28T04:26:19.517Z,6.60
2023-04-28T04:28:47.468Z,7.60
2023-04-28T04:31:15.911Z,5.60
2023-04-28T04:33:43.105Z,6.00
2023-04-28T04:36:10.458Z,4.80
2023-04-28T04:38:37.311Z,4.10
2023-04-28T04:41:15.821Z,7.50
2023-04-28T04:43:43.106Z,7.70
2023-04-28T04:46:10.225Z,4.70
2023-04-28T04:48:37.387Z,5.90
2023-04-28T04:51:04.556Z,4.80
2023-04-28T04:53:31.847Z,5.90
2023-04-28T04:55:59.126Z,5.00
2023-04-28T04:58:26.684Z,7.60
2023-04-28T05:01:32.282Z,5.20
2023-04-28T05:03:59.934Z,4.00
2023-04-28T05:06:27.775Z,6.40
2023-04-28T05:08:59.279Z,4.60
2023-04-28T05:11:26.343Z,4.70
2023-04-28T05:13:53.366Z,7.60
2023-04-28T05:16:20.807Z,4.90
2023-04-28T05:18:48.737Z,4.60
2023-04-28T05:21:17.422Z,8.40
2023-04-28T05:23:44.516Z,4.20
2023-04-28T05:26:12.025Z,3.90
2023-04-28T05:28:41.044Z,4.40
2023-04-28T05:31:08.876Z,3.90
2023-04-28T05:33:35.788Z,3.60
2023-04-28T05:36:03.421Z,4.90
2023-04-28T05:38:32.083Z,5.40
2023-04-28T05:40:59.186Z,4.30
2023-04-28T05:43:26.307Z,4.20
2023-04-28T05:45:54.255Z,5.90
2023-04-28T05:48:21.908Z,4.60
2023-04-28T05:50:49.052Z,7.60
2023-04-28T05:53:16.292Z,9.10
2023-04-28T05:55:43.736Z,4.80
2023-04-28T05:58:10.813Z,5.60
2023-04-28T06:00:38.023Z,4.30
2023-04-28T06:03:05.557Z,6.00
2023-04-28T06:05:33.361Z,5.60
2023-04-28T06:08:00.596Z,4.30
2023-04-28T06:10:28.218Z,9.60
2023-04-28T06:12:55.229Z,7.50
2023-04-28T06:15:22.409Z,7.20
2023-04-28T06:17:50.143Z,5.40
2023-04-28T06:20:17.535Z,5.60
2023-04-28T06:22:45.056Z,4.30
2023-04-28T06:25:12.833Z,2.50
2023-04-28T06:27:46.293Z,4.40
2023-04-28T06:30:22.016Z,6.50
2023-04-28T06:32:48.865Z,5.40
2023-04-28T06:36:52.864Z,18.40
2023-04-28T06:39:20.062Z,4.20
2023-04-28T06:41:47.642Z,5.00
2023-04-28T06:44:15.585Z,12.00
2023-04-28T06:46:43.164Z,4.50
2023-04-28T06:49:10.541Z,2.20
2023-04-28T06:51:37.575Z,6.70
2023-04-28T06:54:04.851Z,7.40
2023-04-28T06:56:32.295Z,4.80
2023-04-28T06:58:59.364Z,2.90
2023-04-28T07:01:26.804Z,4.70
2023-04-28T07:03:54.919Z,4.80
2023-04-28T07:06:22.464Z,3.20
2023-04-28T07:08:50.085Z,4.50
2023-04-28T07:11:17.708Z,4.40
2023-04-28T07:13:46.575Z,2.90
2023-04-28T07:16:13.643Z,3.90
2023-04-28T07:18:41.256Z,3.10
2023-04-28T07:21:09.268Z,5.80
2023-04-28T07:23:38.751Z,3.50
2023-04-28T07:26:05.760Z,4.70
2023-04-28T07:28:33.248Z,4.50
2023-04-28T07:31:00.331Z,3.50
2023-04-28T07:33:28.461Z,5.30
2023-04-28T07:35:55.660Z,3.90
2023-04-28T07:38:23.108Z,6.80
2023-04-28T07:40:53.682Z,2.00
2023-04-28T07:43:21.684Z,3.30
2023-04-28T07:45:49.773Z,3.50
2023-04-28T07:48:17.295Z,4.50
2023-04-28T07:50:44.420Z,3.20
2023-04-28T07:53:11.526Z,7.70
2023-04-28T07:55:42.122Z,7.30
2023-04-28T07:58:09.045Z,3.00
2023-04-28T08:00:36.219Z,3.10
2023-04-28T08:03:03.612Z,2.90
2023-04-28T08:05:30.757Z,13.30
2023-04-28T08:07:59.406Z,9.30
2023-04-28T08:10:28.537Z,1.90
2023-04-28T08:12:55.554Z,2.70
2023-04-28T08:15:23.234Z,2.40
2023-04-28T08:17:50.559Z,4.30
2023-04-28T08:20:22.242Z,2.60
2023-04-28T08:22:51.417Z,3.80
2023-04-28T08:25:18.831Z,3.00
2023-04-28T08:27:46.344Z,2.40
2023-04-28T08:30:13.516Z,5.10
2023-04-28T08:32:40.508Z,2.00
2023-04-28T08:35:09.632Z,4.30
2023-04-28T08:37:36.375Z,2.50
2023-04-28T08:40:04.826Z,3.30
2023-04-28T08:42:32.324Z,3.10
2023-04-28T08:45:02.404Z,3.20
2023-04-28T08:47:35.929Z,4.10
2023-04-28T08:50:07.354Z,4.50
2023-04-28T08:52:34.879Z,3.20
2023-04-28T08:55:06.450Z,3.80
2023-04-28T08:57:41.087Z,5.50
2023-04-28T09:00:10.592Z,4.10
2023-04-28T09:02:38.193Z,8.60
2023-04-28T09:05:08.048Z,3.40
2023-04-28T09:07:36.525Z,5.80
2023-04-28T09:10:19.531Z,4.50
2023-04-28T09:12:47.263Z,4.90
2023-04-28T09:15:28.069Z,10.40
2023-04-28T09:17:55.790Z,5.20
2023-04-28T09:20:23.301Z,4.90
2023-04-28T09:22:50.886Z,4.20
2023-04-28T09:25:18.982Z,5.90
2023-04-28T09:27:46.436Z,3.60
2023-04-28T09:30:13.880Z,4.30
2023-04-28T09:32:40.846Z,3.20
2023-04-28T09:35:08.223Z,4.10
2023-04-28T09:37:35.295Z,5.70
2023-04-28T09:40:07.613Z,2.50
2023-04-28T09:42:39.303Z,4.70
2023-04-28T09:45:13.973Z,5.20
2023-04-28T09:47:47.295Z,6.80
2023-04-28T09:50:17.358Z,8.70
2023-04-28T09:52:46.928Z,2.60
2023-04-28T09:55:14.261Z,1.90
2023-04-28T09:57:41.479Z,3.70
2023-04-28T10:00:09.618Z,2.30
2023-04-28T10:05:10.247Z,5.10
2023-04-28T10:07:37.720Z,3.30
2023-04-28T10:10:05.504Z,5.90
2023-04-28T10:12:32.446Z,3.20
2023-04-28T10:14:59.917Z,2.30
2023-04-28T10:17:29.647Z,3.80
2023-04-28T10:19:57.636Z,5.10
2023-04-28T10:22:46.212Z,5.10
2023-04-28T10:25:13.157Z,2.60
2023-04-28T10:27:44.759Z,2.40
2023-04-28T10:30:28.718Z,2.10
2023-04-28T10:33:06.666Z,4.80
2023-04-28T10:35:36.866Z,5.10
2023-04-28T10:38:10.576Z,2.80
2023-04-28T10:40:41.485Z,3.10
2023-04-28T10:43:10.275Z,3.10
2023-04-28T10:45:56.174Z,1.50
2023-04-28T10:48:40.090Z,4.80
2023-04-28T10:51:07.917Z,2.20
2023-04-28T10:53:48.532Z,3.30
2023-04-28T10:56:17.027Z,4.80
2023-04-28T10:58:46.593Z,2.70
2023-04-28T11:01:20.128Z,3.30
2023-04-28T11:03:47.548Z,6.00
2023-04-28T11:06:24.081Z,2.30
2023-04-28T11:08:51.248Z,2.10
2023-04-28T11:11:26.590Z,1.50
2023-04-28T11:13:55.740Z,3.40
2023-04-28T11:16:24.498Z,4.30
2023-04-28T11:18:55.892Z,2.90
2023-04-28T11:21:25.130Z,5.60
2023-04-28T11:23:52.587Z,2.40
2023-04-28T11:26:19.851Z,1.80
2023-04-28T11:28:48.700Z,3.10
2023-04-28T11:31:21.387Z,2.90
2023-04-28T11:34:01.236Z,2.30
2023-04-28T11:36:33.203Z,6.50
2023-04-28T11:39:00.155Z,2.10
2023-04-28T11:41:27.525Z,4.30
2023-04-28T11:43:54.546Z,3.50
2023-04-28T11:46:23.394Z,9.70
2023-04-28T11:49:04.640Z,1.40
2023-04-28T11:51:38.225Z,3.70
2023-04-28T11:54:07.977Z,3.40
2023-04-28T11:56:43.098Z,2.30
2023-04-28T11:59:13.808Z,3.90
2023-04-28T12:01:47.187Z,3.90
2023-04-28T12:04:14.432Z,2.90
2023-04-28T12:06:42.717Z,5.30
2023-04-28T12:09:17.308Z,2.50
2023-04-28T12:11:59.764Z,1.90
2023-04-28T12:14:26.680Z,10.80
2023-04-28T12:16:54.363Z,6.50
2023-04-28T12:19:22.177Z,6.30
2023-04-28T12:22:06.574Z,4.40
2023-04-28T12:24:33.782Z,4.50
2023-04-28T12:27:22.066Z,4.20
2023-04-28T12:29:49.379Z,3.30
2023-04-28T12:32:17.714Z,3.50
2023-04-28T12:34:45.715Z,5.00
2023-04-28T12:37:13.954Z,6.10
2023-04-28T12:39:41.551Z,6.20
2023-04-28T12:42:08.879Z,2.80
2023-04-28T12:44:37.524Z,4.50
2023-04-28T12:47:07.366Z,3.30
2023-04-28T12:49:35.564Z,8.10
2023-04-28T12:52:03.227Z,3.40
2023-04-28T12:54:31.290Z,3.50
2023-04-28T12:56:58.762Z,4.10
2023-04-28T12:59:27.006Z,8.00
2023-04-28T13:01:54.044Z,6.50
2023-04-28T13:04:21.690Z,3.90
2023-04-28T13:06:49.079Z,2.70
2023-04-28T13:09:18.592Z,4.40
2023-04-28T13:11:49.413Z,6.40
2023-04-28T13:14:16.416Z,6.50
2023-04-28T13:16:43.590Z,3.20
2023-04-28T13:19:14.422Z,3.70
2023-04-28T13:21:44.545Z,10.90
2023-04-28T13:24:11.597Z,2.10
2023-04-28T13:26:38.432Z,5.30
2023-04-28T13:29:05.935Z,4.10
2023-04-28T13:31:33.003Z,2.80
2023-04-28T13:34:02.284Z,7.20
2023-04-28T13:36:35.518Z,9.90
2023-04-28T13:39:03.014Z,3.50
2023-04-28T13:41:29.845Z,5.40
2023-04-28T13:43:57.234Z,4.50
2023-04-28T13:46:24.447Z,6.30
2023-04-28T13:48:51.992Z,7.80
2023-04-28T13:51:19.781Z,2.90
2023-04-28T13:53:47.008Z,3.00
2023-04-28T13:56:14.582Z,3.10
2023-04-28T13:58:41.597Z,2.60
2023-04-28T14:01:08.592Z,7.20
2023-04-28T14:03:36.171Z,3.60
2023-04-28T14:06:04.721Z,2.20
2023-04-28T14:08:32.593Z,2.80
2023-04-28T14:11:00.063Z,2.90
2023-04-28T14:13:27.473Z,2.40
2023-04-28T14:15:59.289Z,6.30
2023-04-28T14:18:28.495Z,6.60
2023-04-28T14:20:58.070Z,8.20
2023-04-28T14:23:25.774Z,5.60
2023-04-28T14:25:56.130Z,6.30
2023-04-28T14:28:23.760Z,6.80
2023-04-28T14:30:50.654Z,5.00
2023-04-28T14:33:17.785Z,3.20
2023-04-28T14:35:44.865Z,3.80
2023-04-28T14:38:13.494Z,3.10
2023-04-28T14:40:43.133Z,4.10
2023-04-28T14:43:10.166Z,8.90
2023-04-28T14:45:38.345Z,7.80
2023-04-28T14:48:07.531Z,10.30
2023-04-28T14:50:36.229Z,6.20
2023-04-28T14:53:07.724Z,10.20
2023-04-28T14:55:35.625Z,5.00
2023-04-28T14:58:03.111Z,11.80
2023-04-28T15:00:31.501Z,26.80
2023-04-28T15:02:58.737Z,12.20
2023-04-28T15:05:25.726Z,11.70
2023-04-28T15:07:53.102Z,7.80
2023-04-28T15:10:19.971Z,8.90
2023-04-28T15:12:48.427Z,7.00
2023-04-28T15:15:15.591Z,7.30
2023-04-28T15:17:43.248Z,9.40
2023-04-28T15:20:11.087Z,5.60
2023-04-28T15:22:38.567Z,8.80
2023-04-28T15:25:06.065Z,11.90
2023-04-28T15:27:32.880Z,10.20
2023-04-28T15:30:01.631Z,11.60
2023-04-28T15:32:30.435Z,7.20
2023-04-28T15:35:00.400Z,8.40
2023-04-28T15:37:43.275Z,7.70
2023-04-28T15:40:11.896Z,4.90
2023-04-28T15:42:39.220Z,5.10
2023-04-28T15:45:07.113Z,11.80
2023-04-28T15:47:33.952Z,6.40
2023-04-28T15:50:00.873Z,6.90
2023-04-28T15:52:27.876Z,6.50
2023-04-28T15:54:55.260Z,7.10
2023-04-28T15:57:23.013Z,6.00
2023-04-28T15:59:51.780Z,10.80
2023-04-28T16:02:19.340Z,6.30
2023-04-28T16:04:47.144Z,12.10
2023-04-28T16:07:14.325Z,13.80
2023-04-28T16:09:41.311Z,8.70
2023-04-28T16:12:08.556Z,14.40
2023-04-28T16:14:36.819Z,9.80
2023-04-28T16:17:04.871Z,8.80
2023-04-28T16:19:33.682Z,5.20
2023-04-28T16:22:01.568Z,5.10
2023-04-28T16:24:28.793Z,6.10
2023-04-28T16:26:56.165Z,23.00
2023-04-28T16:29:23.670Z,23.70
2023-04-28T16:31:50.659Z,28.00
2023-04-28T16:34:19.314Z,42.90
2023-04-28T16:36:46.701Z,27.70
2023-04-28T16:39:13.642Z,29.70
2023-04-28T16:41:40.882Z,27.70
2023-04-28T16:44:08.970Z,12.10
2023-04-28T16:46:35.911Z,15.30
2023-04-28T16:49:03.377Z,20.30
2023-04-28T16:51:35.799Z,12.00
2023-04-28T16:54:02.760Z,16.80
2023-04-28T16:56:29.899Z,17.20
2023-04-28T16:58:57.036Z,13.20
2023-04-28T17:01:24.716Z,12.90
2023-04-28T17:03:52.510Z,12.10
2023-04-28T17:06:19.739Z,5.80
2023-04-28T17:08:47.402Z,10.50
2023-04-28T17:11:16.415Z,6.80
2023-04-28T17:13:43.622Z,6.20
2023-04-28T17:16:11.583Z,6.10
2023-04-28T17:18:38.640Z,3.80
2023-04-28T17:21:06.368Z,6.90
2023-04-28T17:23:33.452Z,6.30
2023-04-28T17:26:00.782Z,8.40
2023-04-28T17:28:28.072Z,6.20
2023-04-28T17:30:55.980Z,6.50
2023-04-28T17:33:23.373Z,5.10
2023-04-28T17:35:50.502Z,8.50
2023-04-28T17:38:17.439Z,3.50
2023-04-28T17:40:48.719Z,8.40
2023-04-28T17:43:16.416Z,8.00
2023-04-28T17:45:43.840Z,8.10
2023-04-28T17:48:12.878Z,7.40
2023-04-28T17:50:39.921Z,6.30
2023-04-28T17:53:08.966Z,16.70
2023-04-28T17:55:36.428Z,10.70
2023-04-28T17:58:03.720Z,11.30
2023-04-28T18:00:31.349Z,6.90
2023-04-28T18:02:58.703Z,7.20
2023-04-28T18:05:26.444Z,9.30
2023-04-28T18:07:53.748Z,5.10
2023-04-28T18:10:21.300Z,5.70
2023-04-28T18:12:48.199Z,9.90
2023-04-28T18:15:15.208Z,5.50
2023-04-28T18:17:42.472Z,6.70
2023-04-28T18:20:09.964Z,6.70
2023-04-28T18:22:37.704Z,8.50
2023-04-28T18:25:05.529Z,11.60
2023-04-28T18:27:32.473Z,6.80
2023-04-28T18:29:59.517Z,8.80
2023-04-28T18:32:29.241Z,7.20
2023-04-28T18:34:57.022Z,7.00
2023-04-28T18:37:24.266Z,8.10
2023-04-28T18:39:56.147Z,7.00
2023-04-28T18:42:24.147Z,4.60
2023-04-28T18:44:59.133Z,8.40
2023-04-28T18:47:34.960Z,7.90
2023-04-28T18:50:02.706Z,7.20
2023-04-28T18:53:38.819Z,8.10
2023-04-28T18:56:05.712Z,7.00
2023-04-28T18:58:32.818Z,6.90
2023-04-28T19:01:02.774Z,6.80
2023-04-28T19:03:31.830Z,9.10
2023-04-28T19:05:59.445Z,5.30
2023-04-28T19:08:26.646Z,7.50
2023-04-28T19:10:54.057Z,6.00
2023-04-28T19:13:20.929Z,5.00
2023-04-28T19:15:48.007Z,7.00
2023-04-28T19:18:16.332Z,5.20
2023-04-28T19:20:43.488Z,6.90
2023-04-28T19:23:11.168Z,5.20
2023-04-28T19:25:38.117Z,7.10
2023-04-28T19:28:05.113Z,14.20
2023-04-28T19:30:33.685Z,9.70
2023-04-28T19:33:00.868Z,11.40
2023-04-28T19:35:27.963Z,8.80
2023-04-28T19:37:55.962Z,9.10
2023-04-28T19:40:23.121Z,11.90
2023-04-28T19:42:50.722Z,10.10
2023-04-28T19:45:17.713Z,13.40
2023-04-28T19:47:44.831Z,11.60
2023-04-28T19:50:13.061Z,11.30
2023-04-28T19:52:40.037Z,10.40
2023-04-28T19:55:08.352Z,13.00
2023-04-28T19:57:35.314Z,11.30
2023-04-28T20:00:02.083Z,5.80
2023-04-28T20:02:34.919Z,8.70
2023-04-28T20:05:02.338Z,6.00
2023-04-28T20:07:29.349Z,10.30
2023-04-28T20:09:58.048Z,7.30
2023-04-28T20:12:25.129Z,7.80
2023-04-28T20:14:53.448Z,6.20
2023-04-28T20:17:20.870Z,7.20
2023-04-28T20:19:48.141Z,8.10
2023-04-28T20:22:15.798Z,5.30
2023-04-28T20:24:43.207Z,9.20
2023-04-28T20:27:11.329Z,11.00
2023-04-28T20:29:38.559Z,6.30
2023-04-28T20:32:05.792Z,7.00
2023-04-28T20:34:32.595Z,6.10
2023-04-28T20:36:59.751Z,5.50
2023-04-28T20:39:28.778Z,5.30
2023-04-28T20:41:58.003Z,6.60
2023-04-28T20:44:25.304Z,8.80
2023-04-28T20:46:52.646Z,9.20
2023-04-28T20:49:19.861Z,8.00
2023-04-28T20:51:48.443Z,6.50
2023-04-28T20:54:16.806Z,9.50
2023-04-28T20:56:45.342Z,5.60
2023-04-28T20:59:12.539Z,7.60
2023-04-28T21:01:41.203Z,6.70
2023-04-28T21:04:08.911Z,7.40
2023-04-28T21:06:37.403Z,6.60
2023-04-28T21:09:04.372Z,6.60
2023-04-28T21:11:31.435Z,9.60
2023-04-28T21:13:58.719Z,7.40
2023-04-28T21:16:26.101Z,8.90
2023-04-28T21:18:55.273Z,9.80
2023-04-28T21:21:25.595Z,9.60
2023-04-28T21:23:53.279Z,5.80
2023-04-28T21:26:21.934Z,7.70
2023-04-28T21:28:50.525Z,7.90
2023-04-28T21:31:18.283Z,5.30
2023-04-28T21:33:45.274Z,4.90
2023-04-28T21:36:12.684Z,5.20
2023-04-28T21:38:39.918Z,5.10
2023-04-28T21:41:07.953Z,4.10
2023-04-28T21:43:35.691Z,4.90
2023-04-28T21:46:02.930Z,7.00
2023-04-28T21:48:30.632Z,5.80
2023-04-28T21:50:59.006Z,4.90
2023-04-28T21:53:26.699Z,6.20
2023-04-28T21:55:53.583Z,10.80
2023-04-28T21:58:20.843Z,8.80
2023-04-28T22:00:47.858Z,7.40
2023-04-28T22:03:15.425Z,5.50
2023-04-28T22:05:42.796Z,5.50
2023-04-28T22:08:09.643Z,7.40
2023-04-28T22:10:36.986Z,5.30
2023-04-28T22:13:05.184Z,8.80
2023-04-28T22:15:32.595Z,5.90
2023-04-28T22:18:00.454Z,10.90
2023-04-28T22:20:27.843Z,5.80
2023-04-28T22:22:55.365Z,9.60
2023-04-28T22:25:23.275Z,8.50
2023-04-28T22:27:50.248Z,7.70
2023-04-28T22:30:18.172Z,5.20
2023-04-28T22:32:47.696Z,5.50
2023-04-28T22:35:16.999Z,3.90
2023-04-28T22:37:44.386Z,7.80
2023-04-28T22:40:11.751Z,6.30
2023-04-28T22:42:39.895Z,6.50
2023-04-28T22:45:09.722Z,6.40
2023-04-28T22:47:36.787Z,7.50
2023-04-28T22:50:06.098Z,5.70
2023-04-28T22:52:34.341Z,6.40
2023-04-28T22:55:01.387Z,7.10
2023-04-28T22:57:28.849Z,5.80
2023-04-28T22:59:56.082Z,5.70
2023-04-28T23:02:23.532Z,5.50
2023-04-28T23:04:51.566Z,5.90
2023-04-28T23:07:19.083Z,5.20
2023-04-28T23:09:53.385Z,5.50
2023-04-28T23:12:21.749Z,4.90
2023-04-28T23:14:49.545Z,6.50
2023-04-28T23:17:33.007Z,4.70
2023-04-28T23:27:33.988Z,5.90
2023-04-28T23:36:41.047Z,6.10
2023-04-28T23:39:07.831Z,5.70
2023-04-28T23:41:34.584Z,6.00
2023-04-28T23:44:01.430Z,7.70
2023-04-28T23:46:29.104Z,7.50
2023-04-28T23:48:55.959Z,4.10
2023-04-28T23:51:25.430Z,5.00
2023-04-28T23:53:52.479Z,7.70
2023-04-28T23:56:20.566Z,6.60
2023-04-28T23:58:47.352Z,3.20
